Time;durP1;ratioP1;P1;durP2;ratioP2;P2;SDS_P1;SDS_P2;PMS_P1;PMS_P2;Temp;Humidity;BMP_temperature;BMP_pressure;BME280_temperature;BME280_humidity;BME280_pressure;Samples;Min_cycle;Max_cycle;Signal;HPM_P1;HPM_P2
2021/12/11 00:00:35;;;;;;;3.20;2.08;;;3.30;99.90;;;;;;5057211;28;20177;-80
2021/12/11 00:03:07;;;;;;;4.88;1.58;;;3.30;99.90;;;;;;5027967;28;20176;-85
2021/12/11 00:05:36;;;;;;;9.65;2.17;;;3.30;99.90;;;;;;5027194;28;20304;-85
2021/12/11 00:08:03;;;;;;;3.70;2.00;;;3.30;99.90;;;;;;5029551;28;20239;-83
2021/12/11 00:10:37;;;;;;;2.92;1.80;;;5.10;99.90;;;;;;5023758;28;20727;-82
2021/12/11 00:13:07;;;;;;;6.13;2.60;;;3.30;99.90;;;;;;5015202;28;20236;-83
2021/12/11 00:15:37;;;;;;;4.85;1.65;;;3.30;99.90;;;;;;5027138;28;20485;-84
2021/12/11 00:18:15;;;;;;;8.32;1.48;;;3.20;99.90;;;;;;5029103;28;20193;-81
2021/12/11 00:20:48;;;;;;;2.10;1.70;;;3.30;99.90;;;;;;5044151;28;20351;-84
2021/12/11 00:23:19;;;;;;;1.63;1.27;;;3.20;99.90;;;;;;5031612;28;20180;-85
2021/12/11 00:25:45;;;;;;;2.75;1.48;;;3.20;99.90;;;;;;5021797;28;20275;-85
2021/12/11 00:28:12;;;;;;;6.07;2.30;;;3.20;99.90;;;;;;5024401;28;20421;-82
2021/12/11 00:30:41;;;;;;;2.25;1.30;;;3.20;99.90;;;;;;5026156;28;20798;-83
2021/12/11 00:33:15;;;;;;;1.85;1.23;;;3.20;99.90;;;;;;5037557;28;20185;-85
2021/12/11 00:35:42;;;;;;;1.92;1.20;;;3.20;99.90;;;;;;5043696;28;20185;-79
2021/12/11 00:38:20;;;;;;;4.43;1.52;;;3.20;99.90;;;;;;5031487;28;20691;-83
2021/12/11 00:40:48;;;;;;;2.08;1.30;;;3.10;99.90;;;;;;5039519;28;20211;-86
2021/12/11 00:43:20;;;;;;;7.72;3.03;;;3.10;99.90;;;;;;5039721;28;20688;-88
2021/12/11 00:45:49;;;;;;;3.58;1.98;;;3.00;99.90;;;;;;5018676;28;20275;-84
2021/12/11 00:48:23;;;;;;;5.13;3.13;;;3.00;99.90;;;;;;5017551;28;20205;-83
2021/12/11 00:51:12;;;;;;;8.35;3.58;;;3.00;99.90;;;;;;5013939;28;20212;-86
2021/12/11 00:53:43;;;;;;;3.20;2.55;;;3.00;99.90;;;;;;5014522;28;20209;-81
2021/12/11 00:56:12;;;;;;;2.97;2.30;;;3.00;99.90;;;;;;5014988;28;20195;-83
2021/12/11 00:58:41;;;;;;;5.13;2.38;;;3.00;99.90;;;;;;5036744;28;20220;-80
2021/12/11 01:01:06;;;;;;;6.07;3.65;;;2.90;99.90;;;;;;5013653;28;20177;-85
2021/12/11 01:03:34;;;;;;;5.57;3.77;;;2.90;99.90;;;;;;5020712;28;20558;-84
2021/12/11 01:06:06;;;;;;;5.63;2.97;;;2.90;99.90;;;;;;5021477;28;20181;-86
2021/12/11 01:08:36;;;;;;;6.20;3.15;;;2.90;99.90;;;;;;5020607;28;20932;-85
2021/12/11 01:11:31;;;;;;;3.80;2.80;;;2.90;99.90;;;;;;5019246;28;20181;-82
2021/12/11 01:14:40;;;;;;;3.47;2.15;;;2.90;99.90;;;;;;4991140;28;20231;-85
2021/12/11 01:17:11;;;;;;;1.70;1.48;;;2.80;99.90;;;;;;5024409;28;20201;-84
2021/12/11 01:19:40;;;;;;;4.28;2.10;;;2.90;99.90;;;;;;5037850;28;20169;-86
2021/12/11 01:22:32;;;;;;;10.02;2.25;;;2.90;99.90;;;;;;5023128;28;20661;-86
2021/12/11 01:25:18;;;;;;;1.25;1.17;;;2.90;99.90;;;;;;5018816;28;22039;-85
2021/12/11 01:27:49;;;;;;;1.10;0.90;;;2.90;99.90;;;;;;5014336;28;20192;-85
2021/12/11 01:30:20;;;;;;;1.85;1.40;;;2.90;99.90;;;;;;5031980;28;20185;-80
2021/12/11 01:32:47;;;;;;;2.08;1.52;;;2.90;99.90;;;;;;5011067;28;20181;-83
2021/12/11 01:35:15;;;;;;;2.25;1.45;;;2.90;99.90;;;;;;5039733;28;20201;-84
2021/12/11 01:37:42;;;;;;;4.03;2.00;;;2.90;99.90;;;;;;5031225;28;20573;-83
2021/12/11 01:40:12;;;;;;;5.07;2.05;;;2.90;99.90;;;;;;5015197;28;20235;-85
2021/12/11 01:42:41;;;;;;;1.17;0.98;;;2.80;99.90;;;;;;5015642;28;20192;-85
2021/12/11 01:45:10;;;;;;;2.08;1.63;;;2.80;99.90;;;;;;5022423;28;20581;-83
2021/12/11 01:47:38;;;;;;;3.20;1.95;;;2.80;99.90;;;;;;5023956;28;20636;-85
2021/12/11 01:50:15;;;;;;;5.30;3.50;;;2.80;99.90;;;;;;5039684;28;20184;-85
2021/12/11 01:52:47;;;;;;;4.30;3.53;;;2.80;99.90;;;;;;5021682;28;20283;-86
2021/12/11 01:55:39;;;;;;;5.25;3.40;;;2.80;99.90;;;;;;5024727;28;20201;-84
2021/12/11 01:58:08;;;;;;;7.05;4.38;;;2.80;99.90;;;;;;5016423;28;20295;-82
2021/12/11 02:00:57;;;;;;;3.50;2.88;;;2.80;99.90;;;;;;5032356;28;20188;-85
2021/12/11 02:03:26;;;;;;;5.53;4.30;;;2.80;99.90;;;;;;5038217;28;20829;-84
2021/12/11 02:05:52;;;;;;;8.10;4.25;;;2.80;99.90;;;;;;5026013;28;20185;-81
2021/12/11 02:08:21;;;;;;;6.03;4.33;;;2.80;99.90;;;;;;5043023;28;20181;-86
2021/12/11 02:10:58;;;;;;;6.25;4.18;;;2.80;99.90;;;;;;5056896;28;20177;-82
2021/12/11 02:13:38;;;;;;;4.30;3.25;;;2.80;99.90;;;;;;5033540;28;20219;-87
2021/12/11 02:16:06;;;;;;;4.63;3.35;;;2.80;99.90;;;;;;5031593;28;20212;-80
2021/12/11 02:18:35;;;;;;;3.63;2.78;;;2.80;99.90;;;;;;5023310;28;20212;-86
2021/12/11 02:21:21;;;;;;;5.10;2.50;;;2.80;99.90;;;;;;5024329;28;20368;-84
2021/12/11 02:23:58;;;;;;;5.95;3.65;;;2.80;99.90;;;;;;5040547;28;20216;-81
2021/12/11 02:26:25;;;;;;;3.90;2.25;;;2.70;99.90;;;;;;5062912;28;20176;-84
2021/12/11 02:29:03;;;;;;;5.10;3.30;;;2.70;99.90;;;;;;5032748;28;20180;-83
2021/12/11 02:31:38;;;;;;;5.57;3.80;;;2.70;99.90;;;;;;5027927;28;20834;-85
2021/12/11 02:34:14;;;;;;;3.97;2.90;;;2.70;99.90;;;;;;5019317;28;20208;-84
2021/12/11 02:36:49;;;;;;;6.75;4.03;;;2.70;99.90;;;;;;5044268;28;20187;-84
2021/12/11 02:39:24;;;;;;;6.40;3.20;;;2.70;99.90;;;;;;5025107;28;20604;-86
2021/12/11 02:42:09;;;;;;;6.25;4.03;;;2.70;99.90;;;;;;5024040;28;20291;-87
2021/12/11 02:44:45;;;;;;;4.38;3.25;;;2.60;99.90;;;;;;5022816;28;20197;-79
2021/12/11 02:47:17;;;;;;;7.07;4.00;;;2.60;99.90;;;;;;5015353;28;20263;-82
2021/12/11 02:49:51;;;;;;;4.53;4.03;;;2.50;99.90;;;;;;5044057;28;20234;-87
2021/12/11 02:52:26;;;;;;;6.30;3.03;;;2.60;99.90;;;;;;5030788;28;20284;-84
2021/12/11 02:55:04;;;;;;;8.98;4.25;;;2.60;99.90;;;;;;5021818;28;20299;-83
2021/12/11 02:57:43;;;;;;;6.55;4.45;;;2.50;99.90;;;;;;5028161;28;20230;-83
2021/12/11 03:00:17;;;;;;;5.05;4.35;;;2.50;99.90;;;;;;5036685;28;20252;-83
2021/12/11 03:02:49;;;;;;;3.88;3.20;;;2.50;99.90;;;;;;5072661;28;20160;-81
2021/12/11 03:05:22;;;;;;;8.93;3.47;;;2.50;99.90;;;;;;5047826;28;20196;-80
2021/12/11 03:07:53;;;;;;;6.45;3.90;;;2.50;99.90;;;;;;5033858;28;20264;-84
2021/12/11 03:10:24;;;;;;;6.57;4.85;;;2.50;99.90;;;;;;5030498;28;20185;-83
2021/12/11 03:12:52;;;;;;;7.80;5.38;;;2.50;99.90;;;;;;5029515;28;20229;-84
2021/12/11 03:15:18;;;;;;;6.97;5.15;;;2.50;99.90;;;;;;5046364;23;20232;-79
2021/12/11 03:17:44;;;;;;;6.57;5.03;;;2.50;99.90;;;;;;5057020;28;20614;-79
2021/12/11 03:20:13;;;;;;;9.70;6.93;;;2.50;99.90;;;;;;5057595;28;20603;-80
2021/12/11 03:22:43;;;;;;;10.88;6.75;;;2.40;99.90;;;;;;5056696;28;20542;-78
2021/12/11 03:25:13;;;;;;;8.10;7.15;;;2.40;99.90;;;;;;5033686;28;20169;-79
2021/12/11 03:27:39;;;;;;;11.35;5.45;;;2.40;99.90;;;;;;5051562;28;20183;-78
2021/12/11 03:30:08;;;;;;;8.40;5.45;;;2.40;99.90;;;;;;5045593;28;20193;-79
2021/12/11 03:32:35;;;;;;;10.80;6.32;;;2.40;99.90;;;;;;5049762;28;20186;-79
2021/12/11 03:35:02;;;;;;;8.02;5.93;;;2.30;99.90;;;;;;5056830;28;20252;-79
2021/12/11 03:37:28;;;;;;;9.98;5.70;;;2.40;99.90;;;;;;5048355;28;20656;-79
2021/12/11 03:39:54;;;;;;;9.93;5.47;;;2.40;99.90;;;;;;5018869;28;20384;-78
2021/12/11 03:42:25;;;;;;;8.63;4.28;;;2.40;99.90;;;;;;5036831;28;20643;-79
2021/12/11 03:44:51;;;;;;;7.80;5.55;;;2.40;99.90;;;;;;5056346;28;20543;-79
2021/12/11 03:47:22;;;;;;;6.07;4.33;;;2.30;99.90;;;;;;5051328;28;20231;-79
2021/12/11 03:49:48;;;;;;;8.63;6.05;;;2.30;99.90;;;;;;5056379;28;20435;-79
2021/12/11 03:52:16;;;;;;;6.20;4.80;;;2.40;99.90;;;;;;5053184;28;20208;-78
2021/12/11 03:54:45;;;;;;;8.38;6.20;;;2.40;99.90;;;;;;5057004;28;20212;-79
2021/12/11 03:57:15;;;;;;;7.10;5.97;;;2.30;99.90;;;;;;5056512;28;20250;-80
2021/12/11 03:59:41;;;;;;;7.63;5.32;;;2.30;99.90;;;;;;5055899;28;20189;-79
2021/12/11 04:02:11;;;;;;;9.25;5.88;;;2.30;99.90;;;;;;5051893;28;20248;-79
2021/12/11 04:04:44;;;;;;;11.00;7.40;;;2.30;99.90;;;;;;5056326;28;20687;-79
2021/12/11 04:07:15;;;;;;;19.95;8.93;;;2.30;99.90;;;;;;5045172;28;20293;-78
2021/12/11 04:09:41;;;;;;;8.52;6.20;;;2.40;99.90;;;;;;5045117;28;21180;-80
2021/12/11 04:12:08;;;;;;;8.67;7.10;;;2.40;99.90;;;;;;5055792;28;20169;-78
2021/12/11 04:14:36;;;;;;;9.95;6.72;;;2.30;99.90;;;;;;5050533;28;20167;-79
2021/12/11 04:17:04;;;;;;;10.10;7.32;;;2.40;99.90;;;;;;5036826;28;20662;-79
2021/12/11 04:19:30;;;;;;;15.02;7.57;;;2.30;99.90;;;;;;5044927;28;20181;-79
2021/12/11 04:21:56;;;;;;;13.05;7.28;;;2.40;99.90;;;;;;5056157;28;20651;-79
2021/12/11 04:24:25;;;;;;;7.17;5.63;;;2.30;99.90;;;;;;5055939;28;20169;-80
2021/12/11 04:26:53;;;;;;;9.82;6.78;;;2.30;99.90;;;;;;5056441;28;20447;-79
2021/12/11 04:29:20;;;;;;;8.57;5.95;;;2.30;99.90;;;;;;5055480;28;20240;-78
2021/12/11 04:31:47;;;;;;;9.40;6.45;;;2.20;99.90;;;;;;5048242;28;20166;-79
2021/12/11 04:34:15;;;;;;;9.70;6.85;;;2.20;99.90;;;;;;5039479;28;20225;-79
2021/12/11 04:36:46;;;;;;;9.95;6.15;;;2.20;99.90;;;;;;5056020;28;20169;-78
2021/12/11 04:39:16;;;;;;;7.00;5.90;;;2.30;99.90;;;;;;5055643;28;20193;-79
2021/12/11 04:41:53;;;;;;;9.60;6.40;;;2.30;99.90;;;;;;5056166;28;20161;-79
2021/12/11 04:44:25;;;;;;;9.93;6.72;;;2.30;99.90;;;;;;5037844;28;20180;-80
2021/12/11 04:46:52;;;;;;;9.95;7.28;;;2.30;99.90;;;;;;5027048;28;20261;-79
2021/12/11 04:49:45;;;;;;;10.50;7.63;;;2.30;99.90;;;;;;5047464;28;20185;-79
2021/12/11 04:52:29;;;;;;;15.15;9.45;;;2.30;99.90;;;;;;5055068;28;20339;-79
2021/12/11 04:55:26;;;;;;;12.85;7.00;;;2.30;99.90;;;;;;5047886;28;20196;-79
2021/12/11 05:01:14;;;;;;;11.05;7.20;;;2.30;99.90;;;;;;5033808;28;20594;-80
2021/12/11 05:11:10;;;;;;;12.43;9.05;;;2.30;99.90;;;;;;5052776;28;20287;-80
2021/12/11 05:13:35;;;;;;;11.82;6.80;;;2.30;99.90;;;;;;5053307;28;20192;-80
2021/12/11 05:16:05;;;;;;;15.63;7.23;;;2.20;99.90;;;;;;5054484;28;20537;-79
2021/12/11 05:18:33;;;;;;;12.13;7.68;;;2.20;99.90;;;;;;5054057;28;20691;-80
2021/12/11 05:21:03;;;;;;;7.93;6.13;;;2.30;99.90;;;;;;5052261;28;20205;-80
2021/12/11 05:23:29;;;;;;;10.23;6.85;;;2.20;99.90;;;;;;5053781;28;20231;-79
2021/12/11 05:25:55;;;;;;;13.40;9.60;;;2.30;99.90;;;;;;5054623;28;20185;-79
2021/12/11 05:28:22;;;;;;;12.80;9.05;;;2.20;99.90;;;;;;5051032;28;20508;-78
2021/12/11 05:30:51;;;;;;;15.40;10.73;;;2.20;99.90;;;;;;5046124;23;20736;-79
2021/12/11 05:33:18;;;;;;;13.27;8.13;;;2.20;99.90;;;;;;5028950;28;20193;-80
2021/12/11 05:35:44;;;;;;;8.75;6.07;;;2.20;99.90;;;;;;5034863;28;20196;-80
2021/12/11 05:38:12;;;;;;;13.82;10.32;;;2.20;99.90;;;;;;5016193;28;20194;-82
2021/12/11 05:40:41;;;;;;;10.75;7.82;;;2.20;99.90;;;;;;5034562;28;20193;-83
2021/12/11 05:43:07;;;;;;;14.48;10.73;;;2.10;99.90;;;;;;5031532;28;20316;-79
2021/12/11 05:45:33;;;;;;;15.63;10.07;;;2.10;99.90;;;;;;5029986;28;20185;-79
2021/12/11 05:48:00;;;;;;;13.50;8.30;;;2.20;99.90;;;;;;5031038;28;20228;-81
2021/12/11 05:50:31;;;;;;;11.43;7.80;;;2.30;99.90;;;;;;5012339;28;20448;-81
2021/12/11 05:52:57;;;;;;;11.63;7.65;;;2.20;99.90;;;;;;5007499;28;20188;-81
2021/12/11 05:55:24;;;;;;;12.30;8.43;;;2.20;99.90;;;;;;5030298;28;20184;-80
2021/12/11 05:57:54;;;;;;;14.25;9.15;;;2.20;99.90;;;;;;5030761;28;20216;-82
2021/12/11 06:00:39;;;;;;;11.93;7.95;;;2.20;99.90;;;;;;5030992;28;20678;-82
2021/12/11 06:03:06;;;;;;;12.63;8.60;;;2.30;99.90;;;;;;5016174;28;20173;-81
2021/12/11 06:05:32;;;;;;;15.02;10.07;;;2.20;99.90;;;;;;5017305;28;20227;-82
2021/12/11 06:07:58;;;;;;;18.85;11.30;;;2.20;99.90;;;;;;5024667;28;20181;-80
2021/12/11 06:10:25;;;;;;;14.00;9.23;;;2.20;99.90;;;;;;5031689;28;20201;-82
2021/12/11 06:12:54;;;;;;;16.73;11.52;;;2.20;99.90;;;;;;5035958;28;20181;-82
2021/12/11 06:15:20;;;;;;;12.70;8.55;;;2.20;99.90;;;;;;5014917;28;21207;-82
2021/12/11 06:17:46;;;;;;;13.38;9.00;;;2.10;99.90;;;;;;5033642;28;20273;-78
2021/12/11 06:20:16;;;;;;;10.90;7.07;;;2.10;99.90;;;;;;5015104;28;20197;-82
2021/12/11 06:22:42;;;;;;;12.18;9.23;;;2.10;99.90;;;;;;5013249;28;20673;-81
2021/12/11 06:25:22;;;;;;;15.32;9.25;;;2.10;99.90;;;;;;5031705;28;20173;-80
2021/12/11 06:27:48;;;;;;;15.30;9.80;;;2.10;99.90;;;;;;5013643;28;20288;-84
2021/12/11 06:30:14;;;;;;;10.07;5.93;;;2.10;99.90;;;;;;5017013;28;20263;-83
2021/12/11 06:32:41;;;;;;;12.43;8.80;;;2.10;99.90;;;;;;5025488;28;20190;-83
2021/12/11 06:35:36;;;;;;;13.70;8.75;;;2.20;99.90;;;;;;5034859;28;20197;-80
2021/12/11 06:38:02;;;;;;;19.60;11.23;;;2.20;99.90;;;;;;5003119;28;20327;-79
2021/12/11 06:40:28;;;;;;;16.17;10.55;;;2.20;99.90;;;;;;5033431;28;20190;-77
2021/12/11 06:42:55;;;;;;;18.25;11.55;;;2.20;99.90;;;;;;5033462;28;20182;-79
2021/12/11 06:45:22;;;;;;;15.88;11.80;;;2.20;99.90;;;;;;5028943;28;20181;-82
2021/12/11 06:47:48;;;;;;;19.45;12.00;;;2.10;99.90;;;;;;5010909;28;20534;-79
2021/12/11 06:50:14;;;;;;;20.37;13.43;;;2.10;99.90;;;;;;5028817;28;20213;-80
2021/12/11 06:52:40;;;;;;;23.88;14.50;;;2.10;99.90;;;;;;5029883;28;20189;-79
2021/12/11 06:55:07;;;;;;;27.47;15.37;;;2.10;99.90;;;;;;5029568;28;20662;-78
2021/12/11 06:57:32;;;;;;;24.17;13.93;;;2.10;99.90;;;;;;5028983;28;20453;-80
2021/12/11 06:59:58;;;;;;;21.50;14.80;;;2.10;99.90;;;;;;5030791;28;20645;-80
2021/12/11 07:02:24;;;;;;;24.77;15.10;;;2.10;99.90;;;;;;5032858;28;20637;-78
2021/12/11 07:04:54;;;;;;;23.73;14.47;;;2.10;99.90;;;;;;5036688;28;20205;-79
2021/12/11 07:07:24;;;;;;;22.17;14.85;;;2.10;99.90;;;;;;5029263;28;20524;-79
2021/12/11 07:09:51;;;;;;;29.52;15.90;;;2.10;99.90;;;;;;5026069;28;20573;-78
2021/12/11 07:12:17;;;;;;;25.63;16.25;;;2.10;99.90;;;;;;5034808;28;20213;-78
2021/12/11 07:14:42;;;;;;;24.07;15.80;;;2.10;99.90;;;;;;5034046;28;20661;-80
2021/12/11 07:17:08;;;;;;;19.60;13.13;;;2.10;99.90;;;;;;5031781;28;20173;-77
2021/12/11 07:19:33;;;;;;;22.50;13.43;;;2.10;99.90;;;;;;5030824;28;20210;-80
2021/12/11 07:21:59;;;;;;;20.07;12.53;;;2.00;99.90;;;;;;5030843;28;20201;-81
2021/12/11 07:24:32;;;;;;;15.53;8.70;;;2.00;99.90;;;;;;5031446;28;20575;-80
2021/12/11 07:27:00;;;;;;;21.23;12.10;;;2.00;99.90;;;;;;5028705;28;20170;-79
2021/12/11 07:29:27;;;;;;;18.67;9.60;;;2.00;99.90;;;;;;5031217;28;20262;-79
2021/12/11 07:31:53;;;;;;;15.32;9.15;;;2.00;99.90;;;;;;5035723;28;20213;-81
2021/12/11 07:34:20;;;;;;;19.73;13.05;;;2.00;99.90;;;;;;5028453;28;20173;-79
2021/12/11 07:36:46;;;;;;;16.95;10.23;;;2.00;99.90;;;;;;5014281;28;20203;-79
2021/12/11 07:39:15;;;;;;;18.55;11.25;;;2.00;99.90;;;;;;5038822;28;20197;-76
2021/12/11 07:41:41;;;;;;;19.02;11.48;;;2.00;99.90;;;;;;5037356;28;20366;-80
2021/12/11 07:44:07;;;;;;;14.80;8.82;;;2.00;99.90;;;;;;5036407;28;20265;-79
2021/12/11 07:46:34;;;;;;;14.83;9.10;;;2.00;99.90;;;;;;5034438;28;20698;-79
2021/12/11 07:49:02;;;;;;;17.70;9.75;;;2.00;99.90;;;;;;5025007;28;20779;-81
2021/12/11 07:51:28;;;;;;;22.90;8.70;;;2.00;99.90;;;;;;5031686;28;20201;-80
2021/12/11 07:53:54;;;;;;;13.33;8.33;;;2.00;99.90;;;;;;5033818;28;20685;-80
2021/12/11 07:56:21;;;;;;;22.45;8.95;;;2.00;99.90;;;;;;5032818;28;20476;-78
2021/12/11 07:58:49;;;;;;;21.67;10.18;;;2.00;99.90;;;;;;5033475;28;20332;-80
2021/12/11 08:01:15;;;;;;;14.25;9.18;;;2.00;99.90;;;;;;5034186;28;20606;-81
2021/12/11 08:03:41;;;;;;;15.32;7.60;;;2.10;99.90;;;;;;5034791;28;20212;-79
2021/12/11 08:06:10;;;;;;;11.73;8.63;;;2.10;99.90;;;;;;5033656;28;20169;-81
2021/12/11 08:08:36;;;;;;;12.52;8.48;;;2.10;99.90;;;;;;5037786;28;20723;-79
2021/12/11 08:11:07;;;;;;;17.55;9.00;;;2.10;99.90;;;;;;5036622;28;20208;-80
2021/12/11 08:13:32;;;;;;;15.15;8.70;;;2.10;99.90;;;;;;5034933;28;20294;-79
2021/12/11 08:15:58;;;;;;;13.27;8.53;;;2.20;99.90;;;;;;5033588;28;20711;-78
2021/12/11 08:18:26;;;;;;;18.30;9.50;;;2.20;99.90;;;;;;5015104;28;20467;-82
2021/12/11 08:20:53;;;;;;;11.90;7.72;;;2.30;99.90;;;;;;5027522;28;20201;-79
2021/12/11 08:23:19;;;;;;;12.70;8.57;;;2.30;99.90;;;;;;5008199;28;20181;-80
2021/12/11 08:25:46;;;;;;;12.60;7.00;;;2.30;99.90;;;;;;5036799;28;20180;-80
2021/12/11 08:28:17;;;;;;;18.95;9.88;;;2.30;99.90;;;;;;5036196;28;20181;-80
2021/12/11 08:30:46;;;;;;;15.70;9.88;;;2.40;99.90;;;;;;5024256;28;20222;-80
2021/12/11 08:33:12;;;;;;;18.27;9.77;;;2.40;99.90;;;;;;5033254;28;20228;-79
2021/12/11 08:35:39;;;;;;;15.02;8.32;;;2.40;99.90;;;;;;5033750;28;20170;-79
2021/12/11 08:38:06;;;;;;;12.55;8.02;;;2.40;99.90;;;;;;5033762;28;20198;-79
2021/12/11 08:40:35;;;;;;;22.20;11.10;;;2.50;99.90;;;;;;5011065;28;20200;-79
2021/12/11 08:43:05;;;;;;;16.77;11.00;;;2.50;99.90;;;;;;5021162;28;20178;-80
2021/12/11 08:45:57;;;;;;;13.85;8.68;;;2.50;99.90;;;;;;5042250;28;20173;-81
2021/12/11 08:48:21;;;;;;;10.93;7.25;;;2.50;99.90;;;;;;5025117;28;20177;-80
2021/12/11 08:50:53;;;;;;;14.18;8.30;;;2.60;99.90;;;;;;5020600;28;20193;-79
2021/12/11 08:53:19;;;;;;;10.80;6.90;;;2.60;99.90;;;;;;5035092;28;20548;-78
2021/12/11 08:55:51;;;;;;;13.63;8.80;;;2.60;99.90;;;;;;5015200;28;20174;-80
2021/12/11 08:58:18;;;;;;;14.77;9.05;;;2.70;99.90;;;;;;5033176;28;20217;-80
2021/12/11 09:00:47;;;;;;;14.73;9.43;;;2.70;99.90;;;;;;5035083;28;20188;-80
2021/12/11 09:03:36;;;;;;;9.52;6.57;;;2.80;99.90;;;;;;5017076;28;20587;-79
2021/12/11 09:06:14;;;;;;;18.25;10.02;;;2.80;99.90;;;;;;5032075;28;20178;-79
2021/12/11 09:09:06;;;;;;;14.73;8.98;;;2.90;99.90;;;;;;5033311;28;20211;-80
2021/12/11 09:11:48;;;;;;;12.15;8.02;;;2.90;99.90;;;;;;5019185;28;20213;-80
2021/12/11 09:14:33;;;;;;;15.82;8.25;;;3.00;99.90;;;;;;5030749;28;20204;-81
2021/12/11 09:17:17;;;;;;;17.10;8.52;;;3.10;99.90;;;;;;5038498;28;20178;-81
2021/12/11 09:19:57;;;;;;;12.55;7.65;;;3.20;99.90;;;;;;5025911;28;20193;-79
2021/12/11 09:22:34;;;;;;;11.85;7.78;;;3.20;99.90;;;;;;5030583;28;20665;-78
2021/12/11 09:25:17;;;;;;;17.60;8.10;;;3.20;99.90;;;;;;5030149;28;20197;-79
2021/12/11 09:27:49;;;;;;;12.13;6.93;;;3.20;99.90;;;;;;5032761;28;20178;-80
2021/12/11 09:30:37;;;;;;;14.02;7.80;;;3.20;99.90;;;;;;5013432;28;20202;-80
2021/12/11 09:33:14;;;;;;;11.63;7.28;;;3.30;99.90;;;;;;5033286;28;20200;-79
2021/12/11 09:35:46;;;;;;;15.38;7.97;;;3.30;99.90;;;;;;5011138;28;20264;-80
2021/12/11 09:38:24;;;;;;;12.10;8.05;;;3.40;99.90;;;;;;5034705;28;20204;-78
2021/12/11 09:40:53;;;;;;;14.35;9.07;;;3.50;99.90;;;;;;5038966;28;20718;-79
2021/12/11 09:43:43;;;;;;;14.30;6.78;;;3.50;99.90;;;;;;5034342;28;20209;-79
2021/12/11 09:46:13;;;;;;;13.68;7.68;;;3.50;99.90;;;;;;5014540;28;20175;-80
2021/12/11 09:48:40;;;;;;;11.07;7.25;;;3.60;99.90;;;;;;5011313;28;20529;-80
2021/12/11 09:51:11;;;;;;;14.35;9.05;;;3.60;99.90;;;;;;5033794;28;20193;-79
2021/12/11 09:53:42;;;;;;;13.80;9.25;;;3.60;99.90;;;;;;5034058;28;20209;-79
2021/12/11 09:56:19;;;;;;;16.85;11.20;;;3.60;99.90;;;;;;5031860;28;20284;-78
2021/12/11 09:58:45;;;;;;;12.55;9.43;;;3.60;99.90;;;;;;5013293;28;20241;-80
2021/12/11 10:01:25;;;;;;;20.13;10.88;;;3.60;99.90;;;;;;5023083;28;20201;-79
2021/12/11 10:04:18;;;;;;;13.18;7.47;;;3.60;99.90;;;;;;5028693;28;20174;-80
2021/12/11 10:09:34;;;;;;;16.00;11.20;;;3.50;99.90;;;;;;5027584;28;20716;-80
2021/12/11 10:12:25;;;;;;;19.75;10.38;;;3.70;99.90;;;;;;5016244;28;20591;-80
2021/12/11 10:14:57;;;;;;;10.77;8.05;;;3.80;99.90;;;;;;5008180;28;20181;-82
2021/12/11 10:17:29;;;;;;;11.57;7.68;;;3.70;99.90;;;;;;5033462;28;20194;-80
2021/12/11 10:19:59;;;;;;;8.40;6.05;;;3.80;99.90;;;;;;5017393;28;20281;-79
2021/12/11 10:22:30;;;;;;;6.78;5.00;;;3.80;99.90;;;;;;4996038;28;20167;-79
2021/12/11 10:24:56;;;;;;;11.48;6.32;;;3.70;99.90;;;;;;5025971;28;20356;-77
2021/12/11 10:27:25;;;;;;;10.23;6.10;;;3.80;99.90;;;;;;5024421;28;20177;-80
2021/12/11 10:29:53;;;;;;;8.57;5.43;;;3.90;99.90;;;;;;5028873;28;20520;-83
2021/12/11 10:32:26;;;;;;;10.50;6.88;;;3.90;99.90;;;;;;5020291;28;20158;-79
2021/12/11 10:34:56;;;;;;;8.40;6.03;;;4.00;99.90;;;;;;5022905;28;20253;-81
2021/12/11 10:37:28;;;;;;;13.25;7.55;;;4.00;99.90;;;;;;5019417;28;20726;-81
2021/12/11 10:39:58;;;;;;;10.23;6.65;;;4.00;99.90;;;;;;5042963;28;20185;-81
2021/12/11 10:42:25;;;;;;;10.23;6.75;;;4.00;99.90;;;;;;5034532;28;20216;-82
2021/12/11 10:44:54;;;;;;;8.57;5.68;;;3.90;99.90;;;;;;5033115;28;20223;-81
2021/12/11 10:47:27;;;;;;;11.90;7.22;;;3.90;99.90;;;;;;5019861;28;20177;-80
2021/12/11 10:49:53;;;;;;;10.02;6.55;;;3.70;99.90;;;;;;5026910;28;20216;-80
2021/12/11 10:52:23;;;;;;;9.80;6.67;;;3.70;99.90;;;;;;5032933;28;20631;-79
2021/12/11 10:54:51;;;;;;;9.73;5.85;;;3.90;99.90;;;;;;5032572;28;20189;-79
2021/12/11 10:57:18;;;;;;;12.38;5.55;;;3.90;99.90;;;;;;5030330;28;20182;-80
2021/12/11 10:59:48;;;;;;;10.63;5.35;;;3.80;99.90;;;;;;5029454;28;20392;-79
2021/12/11 11:02:19;;;;;;;8.60;6.00;;;3.80;99.90;;;;;;5014238;28;20185;-80
2021/12/11 11:04:54;;;;;;;4.82;3.90;;;3.80;99.90;;;;;;5028896;28;20181;-80
2021/12/11 11:07:22;;;;;;;12.70;6.88;;;3.90;99.90;;;;;;5013123;28;20170;-79
2021/12/11 11:09:49;;;;;;;9.48;5.55;;;3.90;99.90;;;;;;4995329;28;20170;-79
2021/12/11 11:12:19;;;;;;;8.57;5.97;;;3.90;99.90;;;;;;5016256;28;20198;-79
2021/12/11 11:14:46;;;;;;;8.60;5.57;;;3.80;99.90;;;;;;5016607;28;20202;-79
2021/12/11 11:17:16;;;;;;;11.38;6.25;;;3.60;99.90;;;;;;5020646;28;20719;-81
2021/12/11 11:19:43;;;;;;;11.90;6.63;;;3.70;99.90;;;;;;5018241;28;20162;-80
2021/12/11 11:22:17;;;;;;;7.53;5.20;;;3.70;99.90;;;;;;4997018;28;20163;-79
2021/12/11 11:24:47;;;;;;;10.88;7.25;;;3.80;99.90;;;;;;5001336;28;20174;-79
2021/12/11 11:27:14;;;;;;;9.93;6.40;;;3.90;99.90;;;;;;5018309;28;20230;-81
2021/12/11 11:29:42;;;;;;;10.70;7.60;;;4.00;99.90;;;;;;5036356;28;20209;-80
2021/12/11 11:32:12;;;;;;;7.80;6.47;;;4.00;99.90;;;;;;5036341;28;20193;-80
2021/12/11 11:34:40;;;;;;;11.52;7.32;;;4.00;99.90;;;;;;5034945;28;20690;-82
2021/12/11 11:37:12;;;;;;;12.70;8.35;;;4.10;99.90;;;;;;5023833;28;20173;-80
2021/12/11 11:39:38;;;;;;;11.10;6.63;;;4.30;99.90;;;;;;5020897;28;20173;-79
2021/12/11 11:42:10;;;;;;;10.40;7.05;;;4.30;99.90;;;;;;5044995;28;20185;-80
2021/12/11 11:44:36;;;;;;;8.32;6.10;;;4.30;99.90;;;;;;5039732;23;20213;-84
2021/12/11 11:47:05;;;;;;;8.27;6.07;;;4.30;99.90;;;;;;5001733;28;20212;-87
2021/12/11 11:49:32;;;;;;;9.07;5.90;;;4.30;99.90;;;;;;5013669;28;20193;-85
2021/12/11 11:52:11;;;;;;;11.65;6.68;;;4.30;99.90;;;;;;5014057;28;20189;-86
2021/12/11 11:54:41;;;;;;;7.70;6.72;;;4.80;99.90;;;;;;4998883;28;20226;-88
2021/12/11 11:57:15;;;;;;;7.32;5.18;;;4.30;99.90;;;;;;4999227;28;20202;-85
2021/12/11 11:59:41;;;;;;;10.55;6.90;;;4.00;99.90;;;;;;4989835;28;20247;-85
2021/12/11 12:02:17;;;;;;;9.85;6.53;;;4.00;99.90;;;;;;5015004;28;20212;-85
2021/12/11 12:04:45;;;;;;;10.93;7.10;;;4.00;99.90;;;;;;5015345;28;20174;-82
2021/12/11 12:07:12;;;;;;;9.68;6.40;;;3.90;99.90;;;;;;4997596;28;20204;-85
2021/12/11 12:09:44;;;;;;;13.70;7.45;;;3.80;99.90;;;;;;4999672;28;20173;-84
2021/12/11 12:12:12;;;;;;;10.35;7.30;;;3.80;99.90;;;;;;5002491;28;20182;-87
2021/12/11 12:14:39;;;;;;;10.00;6.70;;;3.90;99.90;;;;;;5020470;28;20209;-84
2021/12/11 12:17:08;;;;;;;13.07;7.60;;;4.00;99.90;;;;;;5019450;28;20205;-84
2021/12/11 12:19:35;;;;;;;11.93;8.35;;;3.80;99.90;;;;;;5021314;28;20201;-85
2021/12/11 12:22:06;;;;;;;10.80;6.75;;;3.70;99.90;;;;;;5001288;28;20190;-82
2021/12/11 12:24:34;;;;;;;14.05;9.00;;;3.60;99.90;;;;;;5018979;28;20853;-85
2021/12/11 12:27:02;;;;;;;22.27;8.43;;;3.60;99.90;;;;;;4994897;28;20205;-84
2021/12/11 12:29:29;;;;;;;12.18;7.40;;;3.70;99.90;;;;;;5017952;28;20292;-83
2021/12/11 12:32:01;;;;;;;13.35;8.30;;;3.70;99.90;;;;;;5000538;28;20595;-85
2021/12/11 12:34:27;;;;;;;10.48;7.75;;;3.70;99.90;;;;;;4996464;28;20201;-87
2021/12/11 12:36:53;;;;;;;16.40;7.40;;;3.70;99.90;;;;;;5002184;28;20202;-82
2021/12/11 12:39:23;;;;;;;11.07;6.82;;;6.70;99.90;;;;;;4991782;28;20217;-81
2021/12/11 12:41:57;;;;;;;13.48;7.30;;;3.90;99.90;;;;;;5017268;28;20188;-85
2021/12/11 12:44:24;;;;;;;9.48;7.15;;;3.90;99.90;;;;;;4995916;28;20193;-85
2021/12/11 12:46:55;;;;;;;11.88;7.63;;;4.10;99.90;;;;;;4997543;28;20244;-83
2021/12/11 12:49:23;;;;;;;11.25;7.95;;;4.30;99.90;;;;;;5002749;28;20418;-85
2021/12/11 12:51:49;;;;;;;11.70;8.43;;;4.40;99.90;;;;;;5004807;28;20221;-85
2021/12/11 12:54:18;;;;;;;13.88;8.98;;;4.50;99.90;;;;;;5023032;28;20186;-85
2021/12/11 12:57:11;;;;;;;12.60;8.02;;;4.80;99.90;;;;;;5005723;28;20228;-81
2021/12/11 12:59:39;;;;;;;10.80;6.70;;;4.70;99.90;;;;;;4993845;28;20193;-85
2021/12/11 13:02:08;;;;;;;9.77;6.35;;;4.80;99.90;;;;;;5005051;28;20192;-86
2021/12/11 13:04:45;;;;;;;13.95;7.30;;;5.10;99.90;;;;;;5031124;28;20208;-82
2021/12/11 13:07:13;;;;;;;8.02;5.53;;;4.60;99.90;;;;;;5008912;28;20274;-87
2021/12/11 13:09:48;;;;;;;13.40;7.20;;;4.60;99.90;;;;;;5010988;28;20486;-87
2021/12/11 13:12:34;;;;;;;10.63;6.25;;;4.70;99.90;;;;;;5004577;28;20220;-84
2021/12/11 13:15:20;;;;;;;10.60;8.30;;;4.80;99.90;;;;;;5010439;28;20259;-87
2021/12/11 13:17:48;;;;;;;12.23;8.95;;;5.00;99.90;;;;;;5026702;28;20210;-82
2021/12/11 13:20:22;;;;;;;17.80;10.52;;;5.00;99.90;;;;;;5029561;28;20599;-85
2021/12/11 13:22:50;;;;;;;9.68;6.55;;;5.20;99.90;;;;;;5014088;28;20268;-86